Earleville, Maryland
Current Conditions -  °F | °C
As of 7:51 AM on Saturday 25 Oct 2014 (Local Time) from KILG Reporting Station
Clear Clear  
Wind Chill: 39°   Ceiling: Unl
Heat Index: 43°   Visibility: 10mi
Dew Point: 40°   Wind: 6mph
Humidity: 89%   Direction: 290°WNW
Pressure: 29.94"   Gusts: NA
Location:  39.42°N, 75.92°W
Report Text: KILG 251151Z 29005KT 10SM CLR 06/04 A2994 RMK AO2 SLP137 T00610044 10111 20050 53005
Loading
Personal Weather Stations






























Interactive Weather Map
Tropical Storm Tracking
New forecast layout! Learn more

10-Day Weather Forecast

Advertisements
Track Severe Weather on mobile